sensor_id;sensor_type;location;lat;lon;timestamp;pressure;altitude;pressure_sealevel;temperature;humidity
7264;BME280;3673;52.480;13.348;2024-03-08T00:01:36;101998.22;;;9.11;43.84
7264;BME280;3673;52.480;13.348;2024-03-08T00:04:03;102003.50;;;9.13;43.52
7264;BME280;3673;52.480;13.348;2024-03-08T00:06:31;101988.50;;;9.40;43.16
7264;BME280;3673;52.480;13.348;2024-03-08T00:08:59;101976.72;;;9.21;43.06
7264;BME280;3673;52.480;13.348;2024-03-08T00:11:26;101990.81;;;9.28;43.07
7264;BME280;3673;52.480;13.348;2024-03-08T00:13:53;101990.63;;;9.20;43.28
7264;BME280;3673;52.480;13.348;2024-03-08T00:16:20;101991.47;;;9.19;43.43
7264;BME280;3673;52.480;13.348;2024-03-08T00:18:48;101993.34;;;9.25;43.41
7264;BME280;3673;52.480;13.348;2024-03-08T00:21:15;101998.47;;;9.20;43.42
7264;BME280;3673;52.480;13.348;2024-03-08T00:23:42;101992.84;;;9.05;44.03
7264;BME280;3673;52.480;13.348;2024-03-08T00:26:13;101992.00;;;9.06;44.03
7264;BME280;3673;52.480;13.348;2024-03-08T00:28:40;101982.75;;;9.19;43.34
7264;BME280;3673;52.480;13.348;2024-03-08T00:31:07;101983.25;;;9.04;43.98
7264;BME280;3673;52.480;13.348;2024-03-08T00:33:33;101984.59;;;9.23;43.34
7264;BME280;3673;52.480;13.348;2024-03-08T00:36:00;101976.22;;;9.00;43.73
7264;BME280;3673;52.480;13.348;2024-03-08T00:38:27;101983.84;;;8.93;44.14
7264;BME280;3673;52.480;13.348;2024-03-08T00:40:53;101985.69;;;8.97;43.80
7264;BME280;3673;52.480;13.348;2024-03-08T00:43:22;101985.50;;;8.91;44.41
7264;BME280;3673;52.480;13.348;2024-03-08T00:45:49;101986.22;;;8.84;44.58
7264;BME280;3673;52.480;13.348;2024-03-08T00:48:16;101974.03;;;8.84;44.48
7264;BME280;3673;52.480;13.348;2024-03-08T00:50:43;101971.53;;;8.89;44.27
7264;BME280;3673;52.480;13.348;2024-03-08T00:53:11;101974.38;;;8.98;43.84
7264;BME280;3673;52.480;13.348;2024-03-08T00:55:40;101973.72;;;8.72;44.75
7264;BME280;3673;52.480;13.348;2024-03-08T00:58:07;101972.66;;;8.98;43.44
7264;BME280;3673;52.480;13.348;2024-03-08T01:00:36;101984.47;;;8.84;43.91
7264;BME280;3673;52.480;13.348;2024-03-08T01:03:04;101978.78;;;8.67;44.55
7264;BME280;3673;52.480;13.348;2024-03-08T01:05:32;101970.19;;;8.70;44.54
7264;BME280;3673;52.480;13.348;2024-03-08T01:08:00;101959.84;;;8.74;44.31
7264;BME280;3673;52.480;13.348;2024-03-08T01:10:28;101962.44;;;8.73;44.23
7264;BME280;3673;52.480;13.348;2024-03-08T01:12:55;101959.25;;;8.85;44.08
7264;BME280;3673;52.480;13.348;2024-03-08T01:15:22;101960.81;;;8.76;44.55
7264;BME280;3673;52.480;13.348;2024-03-08T01:17:50;101959.78;;;8.71;44.16
7264;BME280;3673;52.480;13.348;2024-03-08T01:20:17;101952.47;;;8.58;44.42
7264;BME280;3673;52.480;13.348;2024-03-08T01:22:44;101947.47;;;8.66;44.42
7264;BME280;3673;52.480;13.348;2024-03-08T01:25:11;101945.47;;;8.56;44.70
7264;BME280;3673;52.480;13.348;2024-03-08T01:27:38;101941.03;;;8.86;43.78
7264;BME280;3673;52.480;13.348;2024-03-08T01:30:06;101937.59;;;8.54;44.43
7264;BME280;3673;52.480;13.348;2024-03-08T01:32:35;101935.69;;;8.82;43.83
7264;BME280;3673;52.480;13.348;2024-03-08T01:35:04;101935.75;;;8.50;44.60
7264;BME280;3673;52.480;13.348;2024-03-08T01:37:31;101938.44;;;8.88;44.07
7264;BME280;3673;52.480;13.348;2024-03-08T01:39:57;101936.72;;;8.87;44.02
7264;BME280;3673;52.480;13.348;2024-03-08T01:42:24;101922.97;;;8.61;44.39
7264;BME280;3673;52.480;13.348;2024-03-08T01:44:51;101921.13;;;8.90;43.61
7264;BME280;3673;52.480;13.348;2024-03-08T01:47:18;101923.19;;;8.68;44.35
7264;BME280;3673;52.480;13.348;2024-03-08T01:49:45;101922.72;;;8.50;44.70
7264;BME280;3673;52.480;13.348;2024-03-08T01:52:13;101914.19;;;8.57;44.57
7264;BME280;3673;52.480;13.348;2024-03-08T01:54:40;101910.06;;;8.65;44.36
7264;BME280;3673;52.480;13.348;2024-03-08T01:57:07;101903.94;;;8.63;44.39
7264;BME280;3673;52.480;13.348;2024-03-08T01:59:34;101895.31;;;8.67;44.46
7264;BME280;3673;52.480;13.348;2024-03-08T02:02:02;101908.50;;;8.72;44.06
7264;BME280;3673;52.480;13.348;2024-03-08T02:04:32;101904.84;;;8.65;44.10
7264;BME280;3673;52.480;13.348;2024-03-08T02:06:59;101902.91;;;8.57;44.21
7264;BME280;3673;52.480;13.348;2024-03-08T02:09:27;101897.91;;;8.66;44.23
7264;BME280;3673;52.480;13.348;2024-03-08T02:11:55;101887.06;;;8.51;44.74
7264;BME280;3673;52.480;13.348;2024-03-08T02:14:22;101898.31;;;8.48;44.31
7264;BME280;3673;52.480;13.348;2024-03-08T02:16:50;101889.47;;;8.76;44.16
7264;BME280;3673;52.480;13.348;2024-03-08T02:19:17;101894.13;;;8.55;44.12
7264;BME280;3673;52.480;13.348;2024-03-08T02:21:46;101894.88;;;8.49;45.08
7264;BME280;3673;52.480;13.348;2024-03-08T02:24:14;101894.22;;;8.58;45.01
7264;BME280;3673;52.480;13.348;2024-03-08T02:26:41;101890.63;;;8.54;45.22
7264;BME280;3673;52.480;13.348;2024-03-08T02:29:09;101880.56;;;8.68;44.35
7264;BME280;3673;52.480;13.348;2024-03-08T02:31:35;101899.78;;;8.71;44.60
7264;BME280;3673;52.480;13.348;2024-03-08T02:34:02;101888.91;;;8.55;44.76
7264;BME280;3673;52.480;13.348;2024-03-08T02:36:30;101890.97;;;8.66;44.88
7264;BME280;3673;52.480;13.348;2024-03-08T02:39:01;101882.25;;;8.66;44.51
7264;BME280;3673;52.480;13.348;2024-03-08T02:41:28;101882.88;;;8.56;44.58
7264;BME280;3673;52.480;13.348;2024-03-08T02:43:55;101887.19;;;8.54;44.57
7264;BME280;3673;52.480;13.348;2024-03-08T02:46:22;101886.66;;;8.68;44.39
7264;BME280;3673;52.480;13.348;2024-03-08T02:48:48;101882.78;;;8.53;44.80
7264;BME280;3673;52.480;13.348;2024-03-08T02:51:16;101881.06;;;8.53;44.23
7264;BME280;3673;52.480;13.348;2024-03-08T02:53:43;101873.94;;;8.46;45.06
7264;BME280;3673;52.480;13.348;2024-03-08T02:56:11;101873.13;;;8.49;44.32
7264;BME280;3673;52.480;13.348;2024-03-08T02:58:42;101867.59;;;8.37;44.97
7264;BME280;3673;52.480;13.348;2024-03-08T03:01:08;101872.34;;;8.53;44.58
7264;BME280;3673;52.480;13.348;2024-03-08T03:03:36;101873.88;;;8.45;44.81
7264;BME280;3673;52.480;13.348;2024-03-08T03:06:03;101871.66;;;8.27;45.18
7264;BME280;3673;52.480;13.348;2024-03-08T03:08:30;101865.47;;;8.23;45.14
7264;BME280;3673;52.480;13.348;2024-03-08T03:10:57;101856.16;;;8.32;45.12
7264;BME280;3673;52.480;13.348;2024-03-08T03:13:25;101855.34;;;8.34;44.82
7264;BME280;3673;52.480;13.348;2024-03-08T03:15:51;101864.22;;;8.09;45.24
7264;BME280;3673;52.480;13.348;2024-03-08T03:18:18;101860.97;;;8.18;45.60
7264;BME280;3673;52.480;13.348;2024-03-08T03:20:47;101861.50;;;8.38;45.00
7264;BME280;3673;52.480;13.348;2024-03-08T03:23:14;101858.00;;;8.36;44.98
7264;BME280;3673;52.480;13.348;2024-03-08T03:25:45;101858.00;;;8.36;45.27
7264;BME280;3673;52.480;13.348;2024-03-08T03:28:12;101857.03;;;8.31;45.18
7264;BME280;3673;52.480;13.348;2024-03-08T03:30:44;101856.88;;;8.27;45.28
7264;BME280;3673;52.480;13.348;2024-03-08T03:33:12;101865.00;;;8.38;44.76
7264;BME280;3673;52.480;13.348;2024-03-08T03:35:40;101852.44;;;7.92;45.62
7264;BME280;3673;52.480;13.348;2024-03-08T03:38:08;101853.66;;;8.05;45.67
7264;BME280;3673;52.480;13.348;2024-03-08T03:40:36;101854.84;;;8.16;45.74
7264;BME280;3673;52.480;13.348;2024-03-08T03:43:03;101850.84;;;8.28;45.49
7264;BME280;3673;52.480;13.348;2024-03-08T03:45:31;101853.63;;;8.03;45.92
7264;BME280;3673;52.480;13.348;2024-03-08T03:48:02;101850.66;;;8.22;45.18
7264;BME280;3673;52.480;13.348;2024-03-08T03:50:29;101852.19;;;8.14;45.18
7264;BME280;3673;52.480;13.348;2024-03-08T03:53:00;101861.28;;;8.28;45.06
7264;BME280;3673;52.480;13.348;2024-03-08T03:55:27;101856.47;;;8.12;45.88
7264;BME280;3673;52.480;13.348;2024-03-08T03:57:54;101865.19;;;8.13;45.92
7264;BME280;3673;52.480;13.348;2024-03-08T04:00:20;101851.91;;;8.35;45.22
7264;BME280;3673;52.480;13.348;2024-03-08T04:02:47;101853.53;;;8.30;45.16
7264;BME280;3673;52.480;13.348;2024-03-08T04:05:15;101856.41;;;8.09;45.47
7264;BME280;3673;52.480;13.348;2024-03-08T04:07:42;101857.53;;;8.19;45.20
7264;BME280;3673;52.480;13.348;2024-03-08T04:10:11;101845.22;;;8.13;45.63
7264;BME280;3673;52.480;13.348;2024-03-08T04:12:38;101855.47;;;8.07;45.80
7264;BME280;3673;52.480;13.348;2024-03-08T04:15:05;101851.13;;;8.06;45.86
7264;BME280;3673;52.480;13.348;2024-03-08T04:17:32;101851.41;;;8.17;45.63
7264;BME280;3673;52.480;13.348;2024-03-08T04:20:01;101848.22;;;7.96;46.06
7264;BME280;3673;52.480;13.348;2024-03-08T04:22:34;101850.06;;;8.00;46.04
7264;BME280;3673;52.480;13.348;2024-03-08T04:25:01;101854.00;;;8.17;45.62
7264;BME280;3673;52.480;13.348;2024-03-08T04:27:28;101861.31;;;7.99;45.97
7264;BME280;3673;52.480;13.348;2024-03-08T04:29:55;101854.22;;;7.93;46.04
7264;BME280;3673;52.480;13.348;2024-03-08T04:32:22;101863.84;;;7.96;46.14
7264;BME280;3673;52.480;13.348;2024-03-08T04:34:49;101856.50;;;8.14;45.69
7264;BME280;3673;52.480;13.348;2024-03-08T04:37:16;101856.84;;;7.95;46.37
7264;BME280;3673;52.480;13.348;2024-03-08T04:39:45;101851.72;;;7.98;46.17
7264;BME280;3673;52.480;13.348;2024-03-08T04:42:12;101842.34;;;8.04;46.32
7264;BME280;3673;52.480;13.348;2024-03-08T04:44:39;101862.16;;;7.98;46.31
7264;BME280;3673;52.480;13.348;2024-03-08T04:47:06;101849.41;;;8.08;46.00
7264;BME280;3673;52.480;13.348;2024-03-08T04:49:33;101842.84;;;7.91;46.61
7264;BME280;3673;52.480;13.348;2024-03-08T04:52:01;101840.06;;;7.84;46.54
7264;BME280;3673;52.480;13.348;2024-03-08T04:54:29;101843.09;;;7.69;46.74
7264;BME280;3673;52.480;13.348;2024-03-08T04:56:57;101842.69;;;7.54;47.36
7264;BME280;3673;52.480;13.348;2024-03-08T04:59:25;101836.94;;;7.65;47.19
7264;BME280;3673;52.480;13.348;2024-03-08T05:01:52;101843.53;;;7.84;46.60
7264;BME280;3673;52.480;13.348;2024-03-08T05:04:19;101845.94;;;7.76;46.79
7264;BME280;3673;52.480;13.348;2024-03-08T05:06:45;101841.06;;;7.89;46.95
7264;BME280;3673;52.480;13.348;2024-03-08T05:09:12;101842.47;;;7.77;47.02
7264;BME280;3673;52.480;13.348;2024-03-08T05:11:40;101841.88;;;7.56;47.11
7264;BME280;3673;52.480;13.348;2024-03-08T05:14:08;101833.09;;;7.53;47.45
7264;BME280;3673;52.480;13.348;2024-03-08T05:16:35;101836.78;;;7.61;47.38
7264;BME280;3673;52.480;13.348;2024-03-08T05:19:02;101843.53;;;7.54;47.11
7264;BME280;3673;52.480;13.348;2024-03-08T05:21:29;101842.38;;;7.73;46.85
7264;BME280;3673;52.480;13.348;2024-03-08T05:23:55;101845.63;;;7.66;47.37
7264;BME280;3673;52.480;13.348;2024-03-08T05:26:22;101840.94;;;7.54;47.65
7264;BME280;3673;52.480;13.348;2024-03-08T05:28:49;101846.06;;;7.51;47.63
7264;BME280;3673;52.480;13.348;2024-03-08T05:31:20;101841.50;;;7.44;47.85
7264;BME280;3673;52.480;13.348;2024-03-08T05:33:48;101833.41;;;7.63;47.52
7264;BME280;3673;52.480;13.348;2024-03-08T05:36:15;101828.00;;;7.57;47.48
7264;BME280;3673;52.480;13.348;2024-03-08T05:38:43;101839.19;;;7.53;47.93
7264;BME280;3673;52.480;13.348;2024-03-08T05:41:09;101830.25;;;7.44;47.79
7264;BME280;3673;52.480;13.348;2024-03-08T05:43:37;101833.28;;;7.59;47.80
7264;BME280;3673;52.480;13.348;2024-03-08T05:46:04;101831.50;;;7.28;48.21
7264;BME280;3673;52.480;13.348;2024-03-08T05:48:32;101821.94;;;7.27;48.38
7264;BME280;3673;52.480;13.348;2024-03-08T05:51:00;101830.25;;;7.45;47.99
7264;BME280;3673;52.480;13.348;2024-03-08T05:53:27;101841.00;;;7.56;48.02
7264;BME280;3673;52.480;13.348;2024-03-08T05:55:56;101833.75;;;7.46;48.14
7264;BME280;3673;52.480;13.348;2024-03-08T05:58:22;101830.59;;;7.28;48.75
7264;BME280;3673;52.480;13.348;2024-03-08T06:00:49;101830.59;;;7.28;48.40
7264;BME280;3673;52.480;13.348;2024-03-08T06:03:16;101835.16;;;7.35;48.39
7264;BME280;3673;52.480;13.348;2024-03-08T06:05:47;101834.25;;;7.34;48.16
7264;BME280;3673;52.480;13.348;2024-03-08T06:08:14;101838.66;;;7.35;48.45
7264;BME280;3673;52.480;13.348;2024-03-08T06:10:41;101849.06;;;7.35;48.00
7264;BME280;3673;52.480;13.348;2024-03-08T06:13:08;101842.28;;;7.40;48.24
7264;BME280;3673;52.480;13.348;2024-03-08T06:15:37;101836.69;;;7.28;48.40
7264;BME280;3673;52.480;13.348;2024-03-08T06:18:04;101845.09;;;7.48;48.32
7264;BME280;3673;52.480;13.348;2024-03-08T06:20:33;101840.84;;;7.51;47.90
7264;BME280;3673;52.480;13.348;2024-03-08T06:23:01;101843.94;;;7.38;48.59
7264;BME280;3673;52.480;13.348;2024-03-08T06:25:28;101843.28;;;7.45;48.07
7264;BME280;3673;52.480;13.348;2024-03-08T06:27:55;101847.34;;;7.36;48.42
7264;BME280;3673;52.480;13.348;2024-03-08T06:30:21;101839.84;;;7.46;48.04
7264;BME280;3673;52.480;13.348;2024-03-08T06:32:48;101847.91;;;7.25;48.28
7264;BME280;3673;52.480;13.348;2024-03-08T06:35:15;101845.13;;;7.19;48.76
7264;BME280;3673;52.480;13.348;2024-03-08T06:37:42;101845.13;;;7.19;48.73
7264;BME280;3673;52.480;13.348;2024-03-08T06:40:12;101841.63;;;7.19;48.64
7264;BME280;3673;52.480;13.348;2024-03-08T06:42:40;101833.13;;;7.24;48.70
7264;BME280;3673;52.480;13.348;2024-03-08T06:45:08;101842.50;;;7.19;48.95
7264;BME280;3673;52.480;13.348;2024-03-08T06:47:36;101838.78;;;7.11;49.03
7264;BME280;3673;52.480;13.348;2024-03-08T06:50:03;101829.34;;;7.15;48.53
7264;BME280;3673;52.480;13.348;2024-03-08T06:52:31;101833.25;;;7.29;48.46
7264;BME280;3673;52.480;13.348;2024-03-08T06:54:58;101832.19;;;7.22;48.74
7264;BME280;3673;52.480;13.348;2024-03-08T06:57:28;101834.44;;;7.10;49.04
7264;BME280;3673;52.480;13.348;2024-03-08T06:59:55;101838.88;;;7.43;48.34
7264;BME280;3673;52.480;13.348;2024-03-08T07:02:22;101830.97;;;7.40;48.17
7264;BME280;3673;52.480;13.348;2024-03-08T07:04:50;101832.84;;;7.44;48.12
7264;BME280;3673;52.480;13.348;2024-03-08T07:07:18;101841.50;;;7.74;47.23
7264;BME280;3673;52.480;13.348;2024-03-08T07:09:46;101843.25;;;7.73;47.40
7264;BME280;3673;52.480;13.348;2024-03-08T07:12:15;101829.94;;;7.64;47.39
7264;BME280;3673;52.480;13.348;2024-03-08T07:14:43;101843.75;;;7.92;46.76
7264;BME280;3673;52.480;13.348;2024-03-08T07:17:12;101822.44;;;7.75;47.05
7264;BME280;3673;52.480;13.348;2024-03-08T07:19:38;101834.97;;;7.88;46.69
7264;BME280;3673;52.480;13.348;2024-03-08T07:22:05;101830.22;;;7.73;46.96
7264;BME280;3673;52.480;13.348;2024-03-08T07:24:35;101813.78;;;7.76;46.62
7264;BME280;3673;52.480;13.348;2024-03-08T07:27:21;101825.50;;;7.92;45.99
7264;BME280;3673;52.480;13.348;2024-03-08T07:29:49;101831.81;;;7.39;46.65
7264;BME280;3673;52.480;13.348;2024-03-08T07:32:16;101826.53;;;7.97;46.22
7264;BME280;3673;52.480;13.348;2024-03-08T07:34:47;101825.66;;;7.96;46.25
7264;BME280;3673;52.480;13.348;2024-03-08T07:37:16;101828.78;;;8.17;46.07
7264;BME280;3673;52.480;13.348;2024-03-08T07:39:43;101830.28;;;8.08;45.81
7264;BME280;3673;52.480;13.348;2024-03-08T07:42:09;101825.06;;;8.06;45.90
7264;BME280;3673;52.480;13.348;2024-03-08T07:44:37;101823.44;;;8.11;46.06
7264;BME280;3673;52.480;13.348;2024-03-08T07:47:05;101826.03;;;8.11;45.90
7264;BME280;3673;52.480;13.348;2024-03-08T07:49:35;101810.56;;;8.17;45.92
7264;BME280;3673;52.480;13.348;2024-03-08T07:52:03;101808.88;;;8.19;46.06
7264;BME280;3673;52.480;13.348;2024-03-08T07:54:32;101802.06;;;8.24;46.08
7264;BME280;3673;52.480;13.348;2024-03-08T07:56:59;101805.84;;;8.36;45.50
7264;BME280;3673;52.480;13.348;2024-03-08T07:59:27;101812.63;;;8.29;45.43
7264;BME280;3673;52.480;13.348;2024-03-08T08:01:55;101799.66;;;8.31;45.30
7264;BME280;3673;52.480;13.348;2024-03-08T08:04:23;101799.66;;;8.66;44.85
7264;BME280;3673;52.480;13.348;2024-03-08T08:06:50;101799.47;;;8.59;45.23
7264;BME280;3673;52.480;13.348;2024-03-08T08:09:17;101797.22;;;8.74;44.78
7264;BME280;3673;52.480;13.348;2024-03-08T08:11:54;101798.59;;;8.58;45.13
7264;BME280;3673;52.480;13.348;2024-03-08T08:14:21;101801.09;;;8.90;44.15
7264;BME280;3673;52.480;13.348;2024-03-08T08:16:48;101795.25;;;9.01;43.85
7264;BME280;3673;52.480;13.348;2024-03-08T08:19:17;101791.25;;;9.17;44.00
7264;BME280;3673;52.480;13.348;2024-03-08T08:21:45;101788.13;;;9.35;44.36
7264;BME280;3673;52.480;13.348;2024-03-08T08:24:12;101789.13;;;9.40;43.57
7264;BME280;3673;52.480;13.348;2024-03-08T08:26:38;101790.56;;;9.25;43.80
7264;BME280;3673;52.480;13.348;2024-03-08T08:29:05;101783.00;;;8.99;43.53
7264;BME280;3673;52.480;13.348;2024-03-08T08:31:32;101795.06;;;9.32;43.34
7264;BME280;3673;52.480;13.348;2024-03-08T08:33:59;101787.16;;;9.29;43.06
7264;BME280;3673;52.480;13.348;2024-03-08T08:36:26;101788.78;;;9.24;42.96
7264;BME280;3673;52.480;13.348;2024-03-08T08:38:56;101779.63;;;9.45;43.18
7264;BME280;3673;52.480;13.348;2024-03-08T08:41:24;101773.88;;;9.61;42.61
7264;BME280;3673;52.480;13.348;2024-03-08T08:43:51;101779.50;;;9.80;42.52
7264;BME280;3673;52.480;13.348;2024-03-08T08:46:17;101771.00;;;9.47;42.01
7264;BME280;3673;52.480;13.348;2024-03-08T08:48:44;101771.91;;;9.51;41.64
7264;BME280;3673;52.480;13.348;2024-03-08T08:51:12;101773.19;;;9.71;41.47
7264;BME280;3673;52.480;13.348;2024-03-08T08:53:39;101768.16;;;9.80;40.97
7264;BME280;3673;52.480;13.348;2024-03-08T08:56:09;101762.03;;;9.79;41.16
7264;BME280;3673;52.480;13.348;2024-03-08T08:58:38;101762.88;;;9.78;41.36
7264;BME280;3673;52.480;13.348;2024-03-08T09:01:06;101758.25;;;10.10;40.73
7264;BME280;3673;52.480;13.348;2024-03-08T09:03:33;101751.38;;;10.15;40.45
7264;BME280;3673;52.480;13.348;2024-03-08T09:06:00;101751.44;;;10.18;40.17
7264;BME280;3673;52.480;13.348;2024-03-08T09:08:28;101754.72;;;10.08;40.25
7264;BME280;3673;52.480;13.348;2024-03-08T09:10:55;101744.16;;;10.02;40.21
7264;BME280;3673;52.480;13.348;2024-03-08T09:13:23;101747.66;;;10.03;40.55
7264;BME280;3673;52.480;13.348;2024-03-08T09:15:49;101741.13;;;10.27;40.21
7264;BME280;3673;52.480;13.348;2024-03-08T09:18:18;101746.16;;;10.15;40.10
7264;BME280;3673;52.480;13.348;2024-03-08T09:20:45;101734.63;;;10.57;39.42
7264;BME280;3673;52.480;13.348;2024-03-08T09:23:12;101734.16;;;10.26;39.66
7264;BME280;3673;52.480;13.348;2024-03-08T09:25:40;101733.84;;;10.11;40.00
7264;BME280;3673;52.480;13.348;2024-03-08T09:28:07;101726.56;;;10.45;39.84
7264;BME280;3673;52.480;13.348;2024-03-08T09:30:35;101734.47;;;10.48;39.82
7264;BME280;3673;52.480;13.348;2024-03-08T09:33:03;101729.31;;;10.51;39.24
7264;BME280;3673;52.480;13.348;2024-03-08T09:35:29;101726.69;;;10.52;38.94
7264;BME280;3673;52.480;13.348;2024-03-08T09:37:56;101727.72;;;10.60;38.46
7264;BME280;3673;52.480;13.348;2024-03-08T09:40:24;101723.25;;;10.55;38.33
7264;BME280;3673;52.480;13.348;2024-03-08T09:42:51;101716.97;;;11.04;38.00
7264;BME280;3673;52.480;13.348;2024-03-08T09:45:20;101724.38;;;10.72;37.94
7264;BME280;3673;52.480;13.348;2024-03-08T09:47:50;101714.16;;;10.92;37.64
7264;BME280;3673;52.480;13.348;2024-03-08T09:50:18;101712.25;;;10.20;38.46
7264;BME280;3673;52.480;13.348;2024-03-08T09:52:49;101716.28;;;11.20;37.18
7264;BME280;3673;52.480;13.348;2024-03-08T09:55:16;101709.97;;;11.04;36.85
7264;BME280;3673;52.480;13.348;2024-03-08T09:57:48;101704.56;;;10.91;37.05
7264;BME280;3673;52.480;13.348;2024-03-08T10:00:42;101707.06;;;10.80;36.72
7264;BME280;3673;52.480;13.348;2024-03-08T10:03:10;101691.47;;;11.66;35.70
7264;BME280;3673;52.480;13.348;2024-03-08T10:05:40;101693.78;;;11.37;35.95
7264;BME280;3673;52.480;13.348;2024-03-08T10:08:07;101685.63;;;11.93;34.98
7264;BME280;3673;52.480;13.348;2024-03-08T10:10:34;101676.94;;;12.01;34.64
7264;BME280;3673;52.480;13.348;2024-03-08T10:13:01;101677.28;;;12.48;34.29
7264;BME280;3673;52.480;13.348;2024-03-08T10:15:28;101674.69;;;12.51;33.33
7264;BME280;3673;52.480;13.348;2024-03-08T10:17:56;101680.13;;;12.83;32.90
7264;BME280;3673;52.480;13.348;2024-03-08T10:20:25;101675.94;;;13.11;32.41
7264;BME280;3673;52.480;13.348;2024-03-08T10:22:52;101680.16;;;12.89;32.55
7264;BME280;3673;52.480;13.348;2024-03-08T10:25:19;101666.28;;;13.14;31.81
7264;BME280;3673;52.480;13.348;2024-03-08T10:27:46;101669.03;;;13.78;30.83
7264;BME280;3673;52.480;13.348;2024-03-08T10:30:15;101665.50;;;13.50;30.74
7264;BME280;3673;52.480;13.348;2024-03-08T10:32:45;101662.91;;;14.21;29.66
7264;BME280;3673;52.480;13.348;2024-03-08T10:35:12;101655.03;;;14.06;29.55
7264;BME280;3673;52.480;13.348;2024-03-08T10:37:45;101657.66;;;13.97;29.81
7264;BME280;3673;52.480;13.348;2024-03-08T10:40:17;101653.25;;;14.48;29.05
7264;BME280;3673;52.480;13.348;2024-03-08T10:42:52;101652.38;;;14.23;28.95
7264;BME280;3673;52.480;13.348;2024-03-08T10:45:30;101651.34;;;14.89;28.29
7264;BME280;3673;52.480;13.348;2024-03-08T10:48:17;101643.28;;;15.27;27.55
7264;BME280;3673;52.480;13.348;2024-03-08T10:50:49;101628.31;;;15.30;27.38
7264;BME280;3673;52.480;13.348;2024-03-08T10:53:18;101636.31;;;15.09;27.45
7264;BME280;3673;52.480;13.348;2024-03-08T10:55:46;101629.97;;;15.43;26.83
7264;BME280;3673;52.480;13.348;2024-03-08T10:58:14;101626.72;;;15.01;27.43
7264;BME280;3673;52.480;13.348;2024-03-08T11:00:41;101629.41;;;14.87;28.30
7264;BME280;3673;52.480;13.348;2024-03-08T11:03:47;101614.94;;;15.62;26.44
7264;BME280;3673;52.480;13.348;2024-03-08T11:06:23;101613.34;;;15.32;26.40
7264;BME280;3673;52.480;13.348;2024-03-08T11:08:57;101612.81;;;14.67;27.03
7264;BME280;3673;52.480;13.348;2024-03-08T11:11:26;101607.31;;;15.12;26.56
7264;BME280;3673;52.480;13.348;2024-03-08T11:13:56;101600.59;;;15.92;25.59
7264;BME280;3673;52.480;13.348;2024-03-08T11:16:40;101593.34;;;16.17;24.92
7264;BME280;3673;52.480;13.348;2024-03-08T11:19:24;101592.81;;;15.80;25.55
7264;BME280;3673;52.480;13.348;2024-03-08T11:21:59;101591.44;;;16.28;24.96
7264;BME280;3673;52.480;13.348;2024-03-08T11:24:27;101578.25;;;16.26;24.98
7264;BME280;3673;52.480;13.348;2024-03-08T11:26:57;101575.59;;;16.28;25.09
7264;BME280;3673;52.480;13.348;2024-03-08T11:29:44;101574.16;;;16.00;25.14
7264;BME280;3673;52.480;13.348;2024-03-08T11:32:12;101572.19;;;16.20;25.52
7264;BME280;3673;52.480;13.348;2024-03-08T11:34:42;101563.06;;;16.46;25.69
7264;BME280;3673;52.480;13.348;2024-03-08T11:37:14;101563.56;;;16.79;24.83
7264;BME280;3673;52.480;13.348;2024-03-08T11:39:46;101559.75;;;16.99;24.13
7264;BME280;3673;52.480;13.348;2024-03-08T11:42:14;101562.31;;;17.06;24.19
7264;BME280;3673;52.480;13.348;2024-03-08T11:44:41;101556.72;;;17.25;23.88
7264;BME280;3673;52.480;13.348;2024-03-08T11:47:10;101557.44;;;16.77;23.74
7264;BME280;3673;52.480;13.348;2024-03-08T11:49:37;101554.94;;;17.27;23.42
7264;BME280;3673;52.480;13.348;2024-03-08T11:52:04;101549.81;;;17.17;23.89
7264;BME280;3673;52.480;13.348;2024-03-08T11:54:34;101550.69;;;17.72;22.84
7264;BME280;3673;52.480;13.348;2024-03-08T11:57:04;101550.78;;;18.15;22.56
7264;BME280;3673;52.480;13.348;2024-03-08T11:59:31;101538.63;;;18.49;22.22
7264;BME280;3673;52.480;13.348;2024-03-08T12:02:03;101545.22;;;18.72;21.68
7264;BME280;3673;52.480;13.348;2024-03-08T12:04:31;101540.94;;;17.76;22.30
7264;BME280;3673;52.480;13.348;2024-03-08T12:06:59;101531.16;;;17.79;22.96
7264;BME280;3673;52.480;13.348;2024-03-08T12:09:28;101532.59;;;18.41;22.06
7264;BME280;3673;52.480;13.348;2024-03-08T12:11:55;101537.47;;;18.18;22.06
7264;BME280;3673;52.480;13.348;2024-03-08T12:14:23;101530.06;;;18.35;20.96
7264;BME280;3673;52.480;13.348;2024-03-08T12:16:51;101523.88;;;18.79;20.67
7264;BME280;3673;52.480;13.348;2024-03-08T12:19:18;101518.09;;;18.99;20.66
7264;BME280;3673;52.480;13.348;2024-03-08T12:21:45;101518.91;;;18.64;20.77
7264;BME280;3673;52.480;13.348;2024-03-08T12:24:16;101507.00;;;19.20;20.42
7264;BME280;3673;52.480;13.348;2024-03-08T12:26:45;101500.50;;;19.32;20.05
7264;BME280;3673;52.480;13.348;2024-03-08T12:29:18;101509.03;;;19.80;19.05
7264;BME280;3673;52.480;13.348;2024-03-08T12:31:51;101496.81;;;19.02;19.90
7264;BME280;3673;52.480;13.348;2024-03-08T12:34:19;101488.34;;;18.88;20.92
7264;BME280;3673;52.480;13.348;2024-03-08T12:36:48;101494.28;;;18.97;20.76
7264;BME280;3673;52.480;13.348;2024-03-08T12:39:24;101487.56;;;19.55;21.93
7264;BME280;3673;52.480;13.348;2024-03-08T12:41:52;101485.84;;;19.17;22.36
7264;BME280;3673;52.480;13.348;2024-03-08T12:44:20;101474.22;;;18.86;23.23
7264;BME280;3673;52.480;13.348;2024-03-08T12:46:48;101482.47;;;19.11;22.27
7264;BME280;3673;52.480;13.348;2024-03-08T12:49:17;101475.56;;;19.39;21.54
7264;BME280;3673;52.480;13.348;2024-03-08T12:51:44;101465.50;;;19.53;22.28
7264;BME280;3673;52.480;13.348;2024-03-08T12:54:11;101466.38;;;19.53;22.54
7264;BME280;3673;52.480;13.348;2024-03-08T12:56:38;101468.59;;;19.35;22.78
7264;BME280;3673;52.480;13.348;2024-03-08T12:59:06;101462.56;;;19.64;22.10
7264;BME280;3673;52.480;13.348;2024-03-08T13:01:34;101451.59;;;19.43;22.28
7264;BME280;3673;52.480;13.348;2024-03-08T13:04:07;101456.38;;;18.92;23.06
7264;BME280;3673;52.480;13.348;2024-03-08T13:06:36;101447.13;;;19.45;22.42
7264;BME280;3673;52.480;13.348;2024-03-08T13:09:06;101441.69;;;19.82;22.17
7264;BME280;3673;52.480;13.348;2024-03-08T13:11:33;101455.22;;;19.73;22.43
7264;BME280;3673;52.480;13.348;2024-03-08T13:14:03;101450.91;;;19.69;22.31